This is the latest recevied weather packets stored in our database for station/object 9W2CHF-3. If no packets are shown the sender has not sent any weather packets the latest 10 day(s).
| Time | Temp. | Humidity | Pressure | Rain* | Wind** | Luminosity | Snow |
|---|---|---|---|---|---|---|---|
| 1777753614 | 29.44° C | 100% | 1009.1 hPa | - | - | - | - |
| 1777752414 | 28.89° C | 100% | 1008.9 hPa | - | - | - | - |
| 1777751214 | 28.89° C | 100% | 1009.2 hPa | - | - | - | - |
| 1777750014 | 28.89° C | 100% | 1009.1 hPa | - | - | - | - |
| 1777748813 | 28.89° C | 100% | 1009.4 hPa | - | - | - | - |
| 1777742818 | 30° C | 100% | 1010.2 hPa | - | - | - | - |
| 1777741617 | 28.89° C | 100% | 1010.3 hPa | - | - | - | - |
| 1777739217 | 29.44° C | 100% | 1010.9 hPa | - | - | - | - |
| 1777738017 | 30° C | 100% | 1010.8 hPa | - | - | - | - |
| 1777735616 | 30° C | 100% | 1011 hPa | - | - | - | - |
| 1777734416 | 30.56° C | 100% | 1010.9 hPa | - | - | - | - |
| 1777733216 | 30.56° C | 100% | 1010.9 hPa | - | - | - | - |
| 1777732016 | 30° C | 100% | 1010.7 hPa | - | - | - | - |
| 1777730816 | 30.56° C | 100% | 1010.4 hPa | - | - | - | - |
| 1777729616 | 31.67° C | 82% | 1010.2 hPa | - | - | - | - |
| 1777728416 | 31.67° C | 84% | 1009.9 hPa | - | - | - | - |
| 1777727216 | 31.67° C | 79% | 1009.5 hPa | - | - | - | - |
| 1777724815 | 32.22° C | 77% | 1008.8 hPa | - | - | - | - |
| 1777723615 | 32.78° C | 73% | 1008.4 hPa | - | - | - | - |
| 1777722415 | 33.33° C | 73% | 1008.2 hPa | - | - | - | - |
| 1777721215 | 32.78° C | 72% | 1007.9 hPa | - | - | - | - |
| 1777720015 | 33.33° C | 71% | 1007.5 hPa | - | - | - | - |
| 1777718815 | 33.89° C | 67% | 1007.2 hPa | - | - | - | - |
| 1777717615 | 35° C | 63% | 1007.2 hPa | - | - | - | - |
| 1777716414 | 36.67° C | 54% | 1007.1 hPa | - | - | - | - |
* Rain since midnight (hover to see other rain measurements)
** Current wind speed in m/s (hover to see current wind gust speed)